Terminal Aerodrome Forecast
Issued by NWS Chicago, IL

Home | Current Version | Previous Version | Text Only | Print | Product List | Glossary On
Versions: 1 2 3 4 5 6 7 8 9 10 11 12 13 14 15 16 17 18 19 20 21 22 23 24 25 26 27 28 29 30 31 32 33 34 35
000
FTUS43 KLOT 040835 AAB
TAFRFD
TAF AMD
KRFD 040835Z 0409/0506 18007KT 6SM BR VCSH FEW020 OVC070
      TEMPO 0409/0411 6SM -RA
     FM041200 21006KT 5SM BR SCT015 BKN070
     FM041400 34007KT 6SM BR OVC015
     FM041600 03011KT P6SM OVC015
     FM041900 04010KT P6SM BKN035
     FM050000 07009KT P6SM VCSH OVC050
     FM050200 07009KT 4SM -SHRA VCTS OVC030CB=

USA.gov is the U.S. government's official web portal to all federal, state and local government web resources and services.